sensor_id;sensor_type;location;lat;lon;timestamp;P1;durP1;ratioP1;P2;durP2;ratioP2
47367;SDS011;34646;47.964;7.982;2024-03-22T00:02:59;5.07;;;1.60;;
47367;SDS011;34646;47.964;7.982;2024-03-22T00:09:00;2.20;;;1.38;;
47367;SDS011;34646;47.964;7.982;2024-03-22T00:15:01;3.47;;;1.40;;
47367;SDS011;34646;47.964;7.982;2024-03-22T00:21:02;2.15;;;1.35;;
47367;SDS011;34646;47.964;7.982;2024-03-22T00:27:03;5.35;;;1.40;;
47367;SDS011;34646;47.964;7.982;2024-03-22T00:33:04;6.07;;;1.42;;
47367;SDS011;34646;47.964;7.982;2024-03-22T00:39:05;2.70;;;1.50;;
47367;SDS011;34646;47.964;7.982;2024-03-22T00:45:07;3.63;;;2.03;;
47367;SDS011;34646;47.964;7.982;2024-03-22T00:51:08;4.75;;;1.42;;
47367;SDS011;34646;47.964;7.982;2024-03-22T00:57:09;2.55;;;1.30;;
47367;SDS011;34646;47.964;7.982;2024-03-22T01:03:10;2.55;;;1.00;;
47367;SDS011;34646;47.964;7.982;2024-03-22T01:09:11;2.30;;;1.27;;
47367;SDS011;34646;47.964;7.982;2024-03-22T01:15:12;2.75;;;1.38;;
47367;SDS011;34646;47.964;7.982;2024-03-22T01:21:13;3.40;;;1.50;;
47367;SDS011;34646;47.964;7.982;2024-03-22T01:27:14;2.08;;;1.10;;
47367;SDS011;34646;47.964;7.982;2024-03-22T01:33:15;5.20;;;1.30;;
47367;SDS011;34646;47.964;7.982;2024-03-22T01:39:17;2.35;;;1.20;;
47367;SDS011;34646;47.964;7.982;2024-03-22T01:45:18;1.83;;;1.10;;
47367;SDS011;34646;47.964;7.982;2024-03-22T01:51:20;4.43;;;1.27;;
47367;SDS011;34646;47.964;7.982;2024-03-22T01:57:21;3.05;;;1.33;;
47367;SDS011;34646;47.964;7.982;2024-03-22T02:03:22;5.68;;;1.40;;
47367;SDS011;34646;47.964;7.982;2024-03-22T02:09:23;3.70;;;1.27;;
47367;SDS011;34646;47.964;7.982;2024-03-22T02:15:24;1.92;;;1.25;;
47367;SDS011;34646;47.964;7.982;2024-03-22T02:21:25;2.63;;;1.20;;
47367;SDS011;34646;47.964;7.982;2024-03-22T02:27:26;4.32;;;1.52;;
47367;SDS011;34646;47.964;7.982;2024-03-22T02:33:28;2.00;;;1.30;;
47367;SDS011;34646;47.964;7.982;2024-03-22T02:39:29;1.80;;;1.30;;
47367;SDS011;34646;47.964;7.982;2024-03-22T02:45:30;1.60;;;1.23;;
47367;SDS011;34646;47.964;7.982;2024-03-22T02:51:31;1.77;;;1.15;;
47367;SDS011;34646;47.964;7.982;2024-03-22T02:57:32;4.05;;;1.50;;
47367;SDS011;34646;47.964;7.982;2024-03-22T03:03:33;2.20;;;1.42;;
47367;SDS011;34646;47.964;7.982;2024-03-22T03:09:34;1.67;;;1.20;;
47367;SDS011;34646;47.964;7.982;2024-03-22T03:15:35;2.97;;;1.13;;
47367;SDS011;34646;47.964;7.982;2024-03-22T03:21:36;1.70;;;1.10;;
47367;SDS011;34646;47.964;7.982;2024-03-22T03:27:38;2.83;;;1.40;;
47367;SDS011;34646;47.964;7.982;2024-03-22T03:33:39;2.55;;;1.35;;
47367;SDS011;34646;47.964;7.982;2024-03-22T03:39:40;2.53;;;1.20;;
47367;SDS011;34646;47.964;7.982;2024-03-22T03:45:41;3.83;;;1.50;;
47367;SDS011;34646;47.964;7.982;2024-03-22T03:51:42;2.13;;;1.33;;
47367;SDS011;34646;47.964;7.982;2024-03-22T03:57:43;2.10;;;1.38;;
47367;SDS011;34646;47.964;7.982;2024-03-22T04:03:44;2.67;;;1.63;;
47367;SDS011;34646;47.964;7.982;2024-03-22T04:09:45;2.83;;;1.45;;
47367;SDS011;34646;47.964;7.982;2024-03-22T04:15:46;1.90;;;1.17;;
47367;SDS011;34646;47.964;7.982;2024-03-22T04:21:48;2.72;;;1.75;;
47367;SDS011;34646;47.964;7.982;2024-03-22T04:27:49;1.80;;;1.17;;
47367;SDS011;34646;47.964;7.982;2024-03-22T04:33:50;2.13;;;1.33;;
47367;SDS011;34646;47.964;7.982;2024-03-22T04:39:52;3.60;;;1.38;;
47367;SDS011;34646;47.964;7.982;2024-03-22T04:45:53;1.38;;;1.02;;
47367;SDS011;34646;47.964;7.982;2024-03-22T04:51:54;1.90;;;1.20;;
47367;SDS011;34646;47.964;7.982;2024-03-22T04:57:55;2.08;;;1.42;;
47367;SDS011;34646;47.964;7.982;2024-03-22T05:03:56;1.80;;;1.40;;
47367;SDS011;34646;47.964;7.982;2024-03-22T05:09:57;1.42;;;0.98;;
47367;SDS011;34646;47.964;7.982;2024-03-22T05:15:58;3.83;;;1.27;;
47367;SDS011;34646;47.964;7.982;2024-03-22T05:22:00;2.10;;;1.13;;
47367;SDS011;34646;47.964;7.982;2024-03-22T05:28:01;4.00;;;1.40;;
47367;SDS011;34646;47.964;7.982;2024-03-22T05:34:02;5.00;;;1.20;;
47367;SDS011;34646;47.964;7.982;2024-03-22T05:40:03;4.43;;;1.30;;
47367;SDS011;34646;47.964;7.982;2024-03-22T05:46:05;2.15;;;1.40;;
47367;SDS011;34646;47.964;7.982;2024-03-22T05:52:06;7.90;;;1.27;;
47367;SDS011;34646;47.964;7.982;2024-03-22T05:58:07;3.65;;;1.35;;
47367;SDS011;34646;47.964;7.982;2024-03-22T06:04:09;6.28;;;1.40;;
47367;SDS011;34646;47.964;7.982;2024-03-22T06:10:10;6.53;;;1.38;;
47367;SDS011;34646;47.964;7.982;2024-03-22T06:16:11;5.75;;;1.38;;
47367;SDS011;34646;47.964;7.982;2024-03-22T06:22:12;6.32;;;1.52;;
47367;SDS011;34646;47.964;7.982;2024-03-22T06:28:13;4.55;;;1.40;;
47367;SDS011;34646;47.964;7.982;2024-03-22T06:34:14;3.38;;;1.20;;
47367;SDS011;34646;47.964;7.982;2024-03-22T06:40:16;6.20;;;2.13;;
47367;SDS011;34646;47.964;7.982;2024-03-22T06:52:17;6.43;;;1.60;;
47367;SDS011;34646;47.964;7.982;2024-03-22T06:58:19;4.63;;;1.45;;
47367;SDS011;34646;47.964;7.982;2024-03-22T07:04:20;8.05;;;1.60;;
47367;SDS011;34646;47.964;7.982;2024-03-22T07:10:21;4.30;;;1.67;;
47367;SDS011;34646;47.964;7.982;2024-03-22T07:16:24;3.00;;;1.23;;
47367;SDS011;34646;47.964;7.982;2024-03-22T07:22:25;4.47;;;1.83;;
47367;SDS011;34646;47.964;7.982;2024-03-22T07:28:26;7.80;;;2.03;;
47367;SDS011;34646;47.964;7.982;2024-03-22T07:34:27;4.57;;;1.58;;
47367;SDS011;34646;47.964;7.982;2024-03-22T07:40:28;4.37;;;1.80;;
47367;SDS011;34646;47.964;7.982;2024-03-22T07:46:29;5.10;;;1.50;;
47367;SDS011;34646;47.964;7.982;2024-03-22T07:52:31;4.82;;;1.70;;
47367;SDS011;34646;47.964;7.982;2024-03-22T07:58:32;3.67;;;1.52;;
47367;SDS011;34646;47.964;7.982;2024-03-22T08:04:33;5.10;;;1.60;;
47367;SDS011;34646;47.964;7.982;2024-03-22T08:10:35;4.13;;;1.77;;
47367;SDS011;34646;47.964;7.982;2024-03-22T08:16:36;24.20;;;2.90;;
47367;SDS011;34646;47.964;7.982;2024-03-22T08:22:37;9.30;;;1.27;;
47367;SDS011;34646;47.964;7.982;2024-03-22T08:28:38;7.53;;;1.40;;
47367;SDS011;34646;47.964;7.982;2024-03-22T08:34:39;6.65;;;1.63;;
47367;SDS011;34646;47.964;7.982;2024-03-22T08:40:40;17.40;;;1.92;;
47367;SDS011;34646;47.964;7.982;2024-03-22T08:52:42;2.42;;;1.50;;
47367;SDS011;34646;47.964;7.982;2024-03-22T08:58:43;4.80;;;1.30;;
47367;SDS011;34646;47.964;7.982;2024-03-22T09:04:44;5.45;;;1.50;;
47367;SDS011;34646;47.964;7.982;2024-03-22T09:10:47;2.92;;;1.48;;
47367;SDS011;34646;47.964;7.982;2024-03-22T09:16:48;7.13;;;1.55;;
47367;SDS011;34646;47.964;7.982;2024-03-22T09:22:49;4.53;;;1.55;;
47367;SDS011;34646;47.964;7.982;2024-03-22T09:28:50;3.13;;;1.20;;
47367;SDS011;34646;47.964;7.982;2024-03-22T09:34:51;3.60;;;1.30;;
47367;SDS011;34646;47.964;7.982;2024-03-22T09:40:52;3.15;;;1.52;;
47367;SDS011;34646;47.964;7.982;2024-03-22T09:46:54;3.17;;;1.20;;
47367;SDS011;34646;47.964;7.982;2024-03-22T09:52:56;6.47;;;1.55;;
47367;SDS011;34646;47.964;7.982;2024-03-22T09:58:57;3.85;;;1.20;;
47367;SDS011;34646;47.964;7.982;2024-03-22T10:04:58;2.97;;;1.67;;
47367;SDS011;34646;47.964;7.982;2024-03-22T10:11:02;6.03;;;1.60;;
47367;SDS011;34646;47.964;7.982;2024-03-22T10:17:03;6.03;;;1.40;;
47367;SDS011;34646;47.964;7.982;2024-03-22T10:23:04;5.97;;;2.13;;
47367;SDS011;34646;47.964;7.982;2024-03-22T10:29:06;3.17;;;1.13;;
47367;SDS011;34646;47.964;7.982;2024-03-22T10:35:07;2.92;;;1.20;;
47367;SDS011;34646;47.964;7.982;2024-03-22T10:41:14;5.35;;;1.30;;
47367;SDS011;34646;47.964;7.982;2024-03-22T10:47:16;5.20;;;1.13;;
47367;SDS011;34646;47.964;7.982;2024-03-22T10:53:23;6.18;;;1.58;;
47367;SDS011;34646;47.964;7.982;2024-03-22T10:59:25;3.33;;;1.50;;
47367;SDS011;34646;47.964;7.982;2024-03-22T11:05:26;8.32;;;1.80;;
47367;SDS011;34646;47.964;7.982;2024-03-22T11:11:28;4.78;;;1.80;;
47367;SDS011;34646;47.964;7.982;2024-03-22T11:17:29;7.00;;;1.67;;
47367;SDS011;34646;47.964;7.982;2024-03-22T11:23:31;8.05;;;2.00;;
47367;SDS011;34646;47.964;7.982;2024-03-22T11:29:33;4.90;;;2.33;;
47367;SDS011;34646;47.964;7.982;2024-03-22T11:35:34;4.32;;;1.98;;
47367;SDS011;34646;47.964;7.982;2024-03-22T11:41:35;6.93;;;2.20;;
47367;SDS011;34646;47.964;7.982;2024-03-22T11:47:37;7.22;;;2.58;;
47367;SDS011;34646;47.964;7.982;2024-03-22T11:53:38;10.25;;;2.25;;
47367;SDS011;34646;47.964;7.982;2024-03-22T11:59:40;6.75;;;2.17;;
47367;SDS011;34646;47.964;7.982;2024-03-22T12:05:40;13.00;;;2.40;;
47367;SDS011;34646;47.964;7.982;2024-03-22T12:11:42;5.55;;;2.25;;
47367;SDS011;34646;47.964;7.982;2024-03-22T12:17:43;8.57;;;2.33;;
47367;SDS011;34646;47.964;7.982;2024-03-22T12:23:44;5.70;;;2.50;;
47367;SDS011;34646;47.964;7.982;2024-03-22T12:29:46;16.33;;;2.40;;
47367;SDS011;34646;47.964;7.982;2024-03-22T12:35:48;6.95;;;2.22;;
47367;SDS011;34646;47.964;7.982;2024-03-22T12:41:48;4.87;;;2.17;;
47367;SDS011;34646;47.964;7.982;2024-03-22T12:47:49;4.28;;;1.80;;
47367;SDS011;34646;47.964;7.982;2024-03-22T12:53:50;4.75;;;1.88;;
47367;SDS011;34646;47.964;7.982;2024-03-22T12:59:52;8.82;;;2.30;;
47367;SDS011;34646;47.964;7.982;2024-03-22T13:05:53;7.05;;;1.90;;
47367;SDS011;34646;47.964;7.982;2024-03-22T13:11:54;5.85;;;1.92;;
47367;SDS011;34646;47.964;7.982;2024-03-22T13:17:55;7.28;;;2.00;;
47367;SDS011;34646;47.964;7.982;2024-03-22T13:23:57;6.90;;;1.80;;
47367;SDS011;34646;47.964;7.982;2024-03-22T13:29:58;9.15;;;1.85;;
47367;SDS011;34646;47.964;7.982;2024-03-22T13:35:59;5.15;;;1.83;;
47367;SDS011;34646;47.964;7.982;2024-03-22T13:42:01;4.38;;;1.70;;
47367;SDS011;34646;47.964;7.982;2024-03-22T13:48:09;5.50;;;1.98;;
47367;SDS011;34646;47.964;7.982;2024-03-22T13:54:12;4.78;;;2.03;;
47367;SDS011;34646;47.964;7.982;2024-03-22T14:00:13;4.90;;;1.73;;
47367;SDS011;34646;47.964;7.982;2024-03-22T14:06:14;4.70;;;1.70;;
47367;SDS011;34646;47.964;7.982;2024-03-22T14:12:15;4.75;;;1.77;;
47367;SDS011;34646;47.964;7.982;2024-03-22T14:18:16;4.68;;;1.85;;
47367;SDS011;34646;47.964;7.982;2024-03-22T14:24:17;3.33;;;2.13;;
47367;SDS011;34646;47.964;7.982;2024-03-22T14:30:19;6.35;;;1.75;;
47367;SDS011;34646;47.964;7.982;2024-03-22T14:36:20;4.40;;;1.75;;
47367;SDS011;34646;47.964;7.982;2024-03-22T14:42:22;4.35;;;1.55;;
47367;SDS011;34646;47.964;7.982;2024-03-22T14:48:23;3.90;;;1.88;;
47367;SDS011;34646;47.964;7.982;2024-03-22T15:00:25;6.43;;;1.70;;
47367;SDS011;34646;47.964;7.982;2024-03-22T15:06:26;2.92;;;1.23;;
47367;SDS011;34646;47.964;7.982;2024-03-22T15:12:31;5.88;;;1.40;;
47367;SDS011;34646;47.964;7.982;2024-03-22T15:18:32;5.15;;;1.80;;
47367;SDS011;34646;47.964;7.982;2024-03-22T15:24:33;2.40;;;1.50;;
47367;SDS011;34646;47.964;7.982;2024-03-22T15:30:34;2.92;;;1.15;;
47367;SDS011;34646;47.964;7.982;2024-03-22T15:36:35;7.07;;;1.30;;
47367;SDS011;34646;47.964;7.982;2024-03-22T15:42:36;2.15;;;0.95;;
47367;SDS011;34646;47.964;7.982;2024-03-22T15:48:37;1.48;;;1.08;;
47367;SDS011;34646;47.964;7.982;2024-03-22T15:54:38;2.95;;;0.98;;
47367;SDS011;34646;47.964;7.982;2024-03-22T16:00:39;3.70;;;1.08;;
47367;SDS011;34646;47.964;7.982;2024-03-22T16:06:41;1.60;;;0.77;;
47367;SDS011;34646;47.964;7.982;2024-03-22T16:12:42;3.13;;;1.48;;
47367;SDS011;34646;47.964;7.982;2024-03-22T16:18:43;2.60;;;0.80;;
47367;SDS011;34646;47.964;7.982;2024-03-22T16:24:44;1.63;;;0.80;;
47367;SDS011;34646;47.964;7.982;2024-03-22T16:30:45;1.45;;;0.90;;
47367;SDS011;34646;47.964;7.982;2024-03-22T16:36:46;3.55;;;1.23;;
47367;SDS011;34646;47.964;7.982;2024-03-22T16:42:48;2.00;;;0.73;;
47367;SDS011;34646;47.964;7.982;2024-03-22T16:48:49;1.75;;;0.70;;
47367;SDS011;34646;47.964;7.982;2024-03-22T16:54:50;2.15;;;0.70;;
47367;SDS011;34646;47.964;7.982;2024-03-22T17:00:51;1.35;;;0.70;;
47367;SDS011;34646;47.964;7.982;2024-03-22T17:06:53;3.15;;;0.90;;
47367;SDS011;34646;47.964;7.982;2024-03-22T17:12:55;2.20;;;0.88;;
47367;SDS011;34646;47.964;7.982;2024-03-22T17:18:56;4.03;;;1.00;;
47367;SDS011;34646;47.964;7.982;2024-03-22T17:24:56;1.93;;;1.00;;
47367;SDS011;34646;47.964;7.982;2024-03-22T17:30:58;2.28;;;0.90;;
47367;SDS011;34646;47.964;7.982;2024-03-22T17:36:59;1.85;;;0.80;;
47367;SDS011;34646;47.964;7.982;2024-03-22T17:43:00;3.35;;;0.90;;
47367;SDS011;34646;47.964;7.982;2024-03-22T17:49:02;3.05;;;1.30;;
47367;SDS011;34646;47.964;7.982;2024-03-22T17:55:03;10.10;;;1.50;;
47367;SDS011;34646;47.964;7.982;2024-03-22T18:01:04;6.68;;;1.38;;
47367;SDS011;34646;47.964;7.982;2024-03-22T18:07:06;8.23;;;0.88;;
47367;SDS011;34646;47.964;7.982;2024-03-22T18:13:07;7.30;;;1.02;;
47367;SDS011;34646;47.964;7.982;2024-03-22T18:19:08;5.90;;;1.00;;
47367;SDS011;34646;47.964;7.982;2024-03-22T18:25:09;3.27;;;1.17;;
47367;SDS011;34646;47.964;7.982;2024-03-22T18:31:10;3.83;;;0.80;;
47367;SDS011;34646;47.964;7.982;2024-03-22T18:37:11;4.05;;;1.10;;
47367;SDS011;34646;47.964;7.982;2024-03-22T18:43:13;7.95;;;1.13;;
47367;SDS011;34646;47.964;7.982;2024-03-22T18:49:14;8.38;;;1.55;;
47367;SDS011;34646;47.964;7.982;2024-03-22T18:55:15;7.57;;;1.17;;
47367;SDS011;34646;47.964;7.982;2024-03-22T19:01:16;3.88;;;1.20;;
47367;SDS011;34646;47.964;7.982;2024-03-22T19:07:17;3.42;;;1.10;;
47367;SDS011;34646;47.964;7.982;2024-03-22T19:13:21;4.00;;;1.33;;
47367;SDS011;34646;47.964;7.982;2024-03-22T19:19:23;7.47;;;1.15;;
47367;SDS011;34646;47.964;7.982;2024-03-22T19:25:24;5.53;;;1.58;;
47367;SDS011;34646;47.964;7.982;2024-03-22T19:31:25;11.55;;;1.50;;
47367;SDS011;34646;47.964;7.982;2024-03-22T19:37:26;2.90;;;1.10;;
47367;SDS011;34646;47.964;7.982;2024-03-22T19:43:27;10.18;;;1.45;;
47367;SDS011;34646;47.964;7.982;2024-03-22T19:49:31;6.63;;;1.40;;
47367;SDS011;34646;47.964;7.982;2024-03-22T19:55:33;7.70;;;1.60;;
47367;SDS011;34646;47.964;7.982;2024-03-22T20:01:34;12.30;;;1.38;;
47367;SDS011;34646;47.964;7.982;2024-03-22T20:07:36;5.82;;;1.50;;
47367;SDS011;34646;47.964;7.982;2024-03-22T20:13:37;5.95;;;1.25;;
47367;SDS011;34646;47.964;7.982;2024-03-22T20:19:39;5.50;;;1.08;;
47367;SDS011;34646;47.964;7.982;2024-03-22T20:25:40;8.95;;;1.50;;
47367;SDS011;34646;47.964;7.982;2024-03-22T20:31:41;7.50;;;1.52;;
47367;SDS011;34646;47.964;7.982;2024-03-22T20:37:42;6.13;;;1.30;;
